Time;durP1;ratioP1;P1;durP2;ratioP2;P2;SDS_P1;SDS_P2;PMS_P1;PMS_P2;Temp;Humidity;BMP_temperature;BMP_pressure;BME280_temperature;BME280_humidity;BME280_pressure;Samples;Min_cycle;Max_cycle;Signal;HPM_P1;HPM_P2
2022/07/04 00:01:30;;;;;;;;;;;;;;;;;;4966849;28;7072;-85
2022/07/04 00:04:00;;;;;;;;;;;;;;;;;;4965584;28;6982;-85
2022/07/04 00:06:41;;;;;;;;;;;;;;;;;;4965895;28;6974;-85
2022/07/04 00:09:08;;;;;;;;;;;;;;;;;;4967081;28;6911;-86
2022/07/04 00:11:34;;;;;;;;;;;;;;;;;;4967173;28;6938;-87
2022/07/04 00:14:00;;;;;;;;;;;;;;;;;;4966816;28;6850;-86
2022/07/04 00:16:26;;;;;;;;;;;;;;;;;;4966992;28;8521;-85
2022/07/04 00:18:52;;;;;;;;;;;;;;;;;;4966377;28;6980;-85
2022/07/04 00:21:19;;;;;;;;;;;;;;;;;;4966575;28;8402;-85
2022/07/04 00:23:45;;;;;;;;;;;;;;;;;;4966597;28;6885;-85
2022/07/04 00:26:11;;;;;;;;;;;;;;;;;;4951719;28;7016;-85
2022/07/04 00:28:37;;;;;;;;;;;;;;;;;;4966400;28;6894;-85
2022/07/04 00:31:02;;;;;;;;;;;;;;;;;;4966196;28;6916;-85
2022/07/04 00:33:28;;;;;;;;;;;;;;;;;;4966056;28;6890;-85
2022/07/04 00:35:54;;;;;;;;;;;;;;;;;;4966042;28;7066;-85
2022/07/04 00:38:19;;;;;;;;;;;;;;;;;;4966583;28;6858;-85
2022/07/04 00:40:47;;;;;;;;;;;;;;;;;;4966804;28;7096;-85
2022/07/04 00:43:21;;;;;;;;;;;;;;;;;;4966129;28;6900;-85
2022/07/04 00:45:46;;;;;;;;;;;;;;;;;;4966319;28;7245;-85
2022/07/04 00:48:15;;;;;;;;;;;;;;;;;;4966738;28;7033;-85
2022/07/04 00:50:44;;;;;;;;;;;;;;;;;;4966364;28;6961;-85
2022/07/04 00:53:10;;;;;;;;;;;;;;;;;;4951107;28;7241;-85
2022/07/04 00:55:38;;;;;;;;;;;;;;;;;;4951279;29;7431;-85
2022/07/04 00:58:04;;;;;;;;;;;;;;;;;;4966034;28;6904;-85
2022/07/04 01:00:30;;;;;;;;;;;;;;;;;;4965969;28;6876;-85
2022/07/04 01:02:59;;;;;;;;;;;;;;;;;;4965767;28;7010;-85
2022/07/04 01:05:24;;;;;;;;;;;;;;;;;;4965521;28;6890;-87
2022/07/04 01:07:51;;;;;;;;;;;;;;;;;;4965320;28;7109;-86
2022/07/04 01:10:19;;;;;;;;;;;;;;;;;;4965271;28;8450;-85
2022/07/04 01:12:45;;;;;;;;;;;;;;;;;;4965981;28;6908;-85
2022/07/04 01:15:14;;;;;;;;;;;;;;;;;;4965450;28;6847;-86
2022/07/04 01:17:39;;;;;;;;;;;;;;;;;;4965488;28;7247;-85
2022/07/04 01:20:05;;;;;;;;;;;;;;;;;;4965318;28;7174;-85
2022/07/04 01:22:31;;;;;;;;;;;;;;;;;;4965448;28;6846;-85
2022/07/04 01:24:57;;;;;;;;;;;;;;;;;;4965652;28;8481;-86
2022/07/04 01:27:25;;;;;;;;;;;;;;;;;;4965809;28;7044;-85
2022/07/04 01:29:51;;;;;;;;;;;;;;;;;;4965493;28;7033;-85
2022/07/04 01:32:17;;;;;;;;;;;;;;;;;;4965273;28;7059;-85
2022/07/04 01:34:42;;;;;;;;;;;;;;;;;;4964917;28;6867;-86
2022/07/04 01:37:08;;;;;;;;;;;;;;;;;;4965176;28;7269;-87
2022/07/04 01:39:34;;;;;;;;;;;;;;;;;;4965278;28;6858;-85
2022/07/04 01:41:59;;;;;;;;;;;;;;;;;;4963965;28;6878;-86
2022/07/04 01:44:26;;;;;;;;;;;;;;;;;;4963832;28;6897;-86
2022/07/04 01:46:51;;;;;;;;;;;;;;;;;;4963901;28;6902;-86
2022/07/04 01:49:17;;;;;;;;;;;;;;;;;;4961137;28;6898;-87
2022/07/04 01:51:44;;;;;;;;;;;;;;;;;;4961543;28;7095;-87
2022/07/04 01:54:10;;;;;;;;;;;;;;;;;;4945867;29;6841;-86
2022/07/04 01:56:35;;;;;;;;;;;;;;;;;;4960554;28;6956;-88
2022/07/04 01:59:03;;;;;;;;;;;;;;;;;;4960704;28;6900;-87
2022/07/04 02:01:30;;;;;;;;;;;;;;;;;;4961624;28;6955;-87
2022/07/04 02:04:00;;;;;;;;;;;;;;;;;;4961624;28;8333;-88
2022/07/04 02:06:26;;;;;;;;;;;;;;;;;;4960782;28;8821;-86
2022/07/04 02:14:21;;;;;;;;;;;;;;;;;;4943954;29;6941;-87
2022/07/04 02:16:47;;;;;;;;;;;;;;;;;;4958487;28;7147;-90
2022/07/04 02:19:13;;;;;;;;;;;;;;;;;;4958202;28;7001;-87
2022/07/04 02:21:39;;;;;;;;;;;;;;;;;;4957864;28;6899;-90
2022/07/04 02:24:04;;;;;;;;;;;;;;;;;;4961457;28;7043;-84
2022/07/04 02:26:30;;;;;;;;;;;;;;;;;;4964583;28;6878;-85
2022/07/04 02:28:56;;;;;;;;;;;;;;;;;;4963916;28;6893;-87
2022/07/04 02:31:22;;;;;;;;;;;;;;;;;;4964101;28;6833;-85
2022/07/04 02:33:48;;;;;;;;;;;;;;;;;;4963843;28;6992;-85
2022/07/04 02:36:13;;;;;;;;;;;;;;;;;;4961796;28;7028;-88
2022/07/04 02:38:39;;;;;;;;;;;;;;;;;;4962556;29;7010;-85
2022/07/04 02:41:05;;;;;;;;;;;;;;;;;;4962422;29;6812;-88
2022/07/04 02:43:31;;;;;;;;;;;;;;;;;;4963312;29;6882;-88
2022/07/04 02:45:57;;;;;;;;;;;;;;;;;;4962388;29;6983;-86
2022/07/04 02:48:25;;;;;;;;;;;;;;;;;;4963762;29;6842;-85
2022/07/04 02:50:51;;;;;;;;;;;;;;;;;;4964105;28;6908;-85
2022/07/04 02:53:20;;;;;;;;;;;;;;;;;;4964266;29;6866;-86
2022/07/04 02:55:45;;;;;;;;;;;;;;;;;;4964302;29;7154;-85
2022/07/04 02:58:11;;;;;;;;;;;;;;;;;;4963769;28;6963;-85
2022/07/04 03:00:37;;;;;;;;;;;;;;;;;;4964217;29;6955;-85
2022/07/04 03:03:05;;;;;;;;;;;;;;;;;;4964146;29;7041;-85
2022/07/04 03:05:32;;;;;;;;;;;;;;;;;;4964179;29;8234;-85
2022/07/04 03:07:57;;;;;;;;;;;;;;;;;;4964021;29;7129;-86
2022/07/04 03:10:23;;;;;;;;;;;;;;;;;;4963544;29;7054;-85
2022/07/04 03:12:49;;;;;;;;;;;;;;;;;;4963542;29;8305;-85
2022/07/04 03:15:15;;;;;;;;;;;;;;;;;;4963485;29;6816;-85
2022/07/04 03:17:44;;;;;;;;;;;;;;;;;;4963411;28;6963;-85
2022/07/04 03:20:12;;;;;;;;;;;;;;;;;;4963367;28;6912;-87
2022/07/04 03:22:38;;;;;;;;;;;;;;;;;;4962702;29;8170;-87
2022/07/04 03:25:05;;;;;;;;;;;;;;;;;;4961235;28;8343;-85
2022/07/04 03:27:31;;;;;;;;;;;;;;;;;;4961681;29;7070;-86
2022/07/04 03:29:56;;;;;;;;;;;;;;;;;;4946367;28;7058;-87
2022/07/04 03:32:22;;;;;;;;;;;;;;;;;;4961837;28;7001;-85
2022/07/04 03:34:50;;;;;;;;;;;;;;;;;;4953495;28;7014;-85
2022/07/04 03:37:16;;;;;;;;;;;;;;;;;;4941664;29;6824;-86
2022/07/04 03:39:42;;;;;;;;;;;;;;;;;;4950703;29;6901;-86
2022/07/04 03:42:11;;;;;;;;;;;;;;;;;;4951352;29;6855;-85
2022/07/04 03:44:36;;;;;;;;;;;;;;;;;;4951147;29;8006;-85
2022/07/04 03:47:04;;;;;;;;;;;;;;;;;;4951276;29;7170;-85
2022/07/04 03:49:30;;;;;;;;;;;;;;;;;;4951429;29;7236;-85
2022/07/04 03:51:56;;;;;;;;;;;;;;;;;;4950699;29;6992;-85
2022/07/04 03:54:21;;;;;;;;;;;;;;;;;;4951269;29;6859;-85
2022/07/04 03:56:49;;;;;;;;;;;;;;;;;;4950803;29;6872;-85
2022/07/04 03:59:15;;;;;;;;;;;;;;;;;;4950623;29;6907;-85
2022/07/04 04:01:41;;;;;;;;;;;;;;;;;;4950642;29;7082;-85
2022/07/04 04:06:51;;;;;;;;;;;;;;;;;;4952290;29;6807;-85
2022/07/04 04:09:18;;;;;;;;;;;;;;;;;;4951049;29;6839;-85
2022/07/04 04:11:45;;;;;;;;;;;;;;;;;;4950586;29;7071;-84
2022/07/04 04:14:12;;;;;;;;;;;;;;;;;;4950780;29;6901;-86
2022/07/04 04:16:38;;;;;;;;;;;;;;;;;;4952249;29;6876;-85
2022/07/04 04:19:04;;;;;;;;;;;;;;;;;;4950061;29;7054;-88
2022/07/04 04:21:30;;;;;;;;;;;;;;;;;;4944345;29;7157;-88
2022/07/04 04:23:56;;;;;;;;;;;;;;;;;;4945441;29;8538;-86
2022/07/04 04:26:21;;;;;;;;;;;;;;;;;;4946415;29;7023;-88
2022/07/04 04:28:47;;;;;;;;;;;;;;;;;;4945080;29;6863;-88
2022/07/04 04:31:14;;;;;;;;;;;;;;;;;;4944800;29;8238;-88
2022/07/04 04:33:40;;;;;;;;;;;;;;;;;;4944651;28;7061;-89
2022/07/04 04:36:06;;;;;;;;;;;;;;;;;;4962948;28;7126;-86
2022/07/04 04:38:32;;;;;;;;;;;;;;;;;;4965851;28;7126;-86
2022/07/04 04:40:58;;;;;;;;;;;;;;;;;;4967504;28;8265;-85
2022/07/04 04:43:23;;;;;;;;;;;;;;;;;;4967196;28;6899;-88
2022/07/04 04:45:49;;;;;;;;;;;;;;;;;;4964442;28;7201;-89
2022/07/04 04:48:15;;;;;;;;;;;;;;;;;;4969237;28;6864;-85
2022/07/04 04:50:41;;;;;;;;;;;;;;;;;;4969392;28;8020;-85
2022/07/04 04:53:07;;;;;;;;;;;;;;;;;;4969501;28;7067;-85
2022/07/04 04:55:33;;;;;;;;;;;;;;;;;;4969153;28;6885;-85
2022/07/04 04:58:02;;;;;;;;;;;;;;;;;;4969390;28;6896;-85
2022/07/04 05:00:27;;;;;;;;;;;;;;;;;;4969155;28;6905;-85
2022/07/04 05:02:53;;;;;;;;;;;;;;;;;;4968531;28;6964;-87
2022/07/04 05:05:19;;;;;;;;;;;;;;;;;;4966939;28;6864;-85
2022/07/04 05:07:47;;;;;;;;;;;;;;;;;;4968962;28;7131;-85
2022/07/04 05:10:13;;;;;;;;;;;;;;;;;;4968585;28;6954;-84
2022/07/04 05:12:39;;;;;;;;;;;;;;;;;;4969109;28;6896;-85
2022/07/04 05:15:05;;;;;;;;;;;;;;;;;;4969144;28;6897;-85
2022/07/04 05:17:30;;;;;;;;;;;;;;;;;;4968560;28;7079;-87
2022/07/04 05:19:56;;;;;;;;;;;;;;;;;;4968649;28;6873;-86
2022/07/04 05:22:22;;;;;;;;;;;;;;;;;;4968376;28;6977;-86
2022/07/04 05:24:50;;;;;;;;;;;;;;;;;;4965473;28;6886;-89
2022/07/04 05:27:15;;;;;;;;;;;;;;;;;;4967255;28;6935;-85
2022/07/04 05:29:41;;;;;;;;;;;;;;;;;;4964315;28;6879;-85
2022/07/04 05:32:07;;;;;;;;;;;;;;;;;;4964724;28;6826;-89
2022/07/04 05:34:33;;;;;;;;;;;;;;;;;;4963129;28;6867;-86
2022/07/04 05:36:59;;;;;;;;;;;;;;;;;;4963923;28;6931;-88
2022/07/04 05:39:25;;;;;;;;;;;;;;;;;;4980363;28;7028;-86
2022/07/04 05:41:50;;;;;;;;;;;;;;;;;;4964237;28;6903;-87
2022/07/04 05:44:16;;;;;;;;;;;;;;;;;;4959579;28;8313;-86
2022/07/04 05:46:42;;;;;;;;;;;;;;;;;;4975298;28;6961;-89
2022/07/04 05:49:10;;;;;;;;;;;;;;;;;;4958273;28;6846;-86
2022/07/04 05:51:35;;;;;;;;;;;;;;;;;;4924769;29;7101;-89
2022/07/04 05:54:01;;;;;;;;;;;;;;;;;;4955117;28;7097;-89
2022/07/04 05:56:27;;;;;;;;;;;;;;;;;;4955666;28;7148;-91
2022/07/04 05:58:52;;;;;;;;;;;;;;;;;;4923344;29;7026;-91
2022/07/04 06:01:19;;;;;;;;;;;;;;;;;;4914226;28;12129;-86
2022/07/04 06:03:44;;;;;;;;;;;;;;;;;;4906645;29;7099;-88
2022/07/04 06:06:10;;;;;;;;;;;;;;;;;;4908914;29;6887;-90
2022/07/04 06:08:36;;;;;;;;;;;;;;;;;;4905118;29;7224;-90
2022/07/04 06:11:03;;;;;;;;;;;;;;;;;;4920347;29;7358;-90
2022/07/04 06:13:28;;;;;;;;;;;;;;;;;;4902147;29;8321;-89
2022/07/04 06:15:54;;;;;;;;;;;;;;;;;;4902400;29;7141;-89
2022/07/04 06:18:20;;;;;;;;;;;;;;;;;;4902631;29;8674;-90
2022/07/04 06:20:45;;;;;;;;;;;;;;;;;;4902673;29;8729;-90
2022/07/04 06:23:11;;;;;;;;;;;;;;;;;;4903021;29;7251;-89
2022/07/04 06:25:36;;;;;;;;;;;;;;;;;;4906257;29;7245;-89
2022/07/04 06:28:02;;;;;;;;;;;;;;;;;;4920392;29;7155;-89
2022/07/04 06:30:30;;;;;;;;;;;;;;;;;;4907584;29;8284;-87
2022/07/04 06:32:57;;;;;;;;;;;;;;;;;;4904273;29;6917;-89
2022/07/04 06:38:10;;;;;;;;;;;;;;;;;;4944278;29;6801;-89
2022/07/04 06:40:37;;;;;;;;;;;;;;;;;;4922836;29;6965;-90
2022/07/04 06:43:04;;;;;;;;;;;;;;;;;;4921799;29;6878;-89
2022/07/04 06:45:30;;;;;;;;;;;;;;;;;;4922612;29;6972;-89
2022/07/04 06:47:56;;;;;;;;;;;;;;;;;;4921416;29;7172;-90
2022/07/04 06:50:22;;;;;;;;;;;;;;;;;;4955711;29;7277;-87
2022/07/04 06:52:47;;;;;;;;;;;;;;;;;;4942425;29;6847;-90
2022/07/04 06:55:14;;;;;;;;;;;;;;;;;;4921622;29;8713;-89
2022/07/04 06:57:39;;;;;;;;;;;;;;;;;;4923825;29;7081;-91
2022/07/04 07:00:06;;;;;;;;;;;;;;;;;;4926416;29;7352;-87
2022/07/04 07:02:35;;;;;;;;;;;;;;;;;;4927357;29;6998;-90
2022/07/04 07:05:01;;;;;;;;;;;;;;;;;;4934299;29;7054;-90
2022/07/04 07:07:27;;;;;;;;;;;;;;;;;;4925917;28;7194;-90
2022/07/04 07:09:54;;;;;;;;;;;;;;;;;;4938748;29;7191;-90
2022/07/04 07:12:21;;;;;;;;;;;;;;;;;;4940605;28;7044;-90
2022/07/04 07:14:47;;;;;;;;;;;;;;;;;;4943547;28;7071;-91
2022/07/04 07:17:12;;;;;;;;;;;;;;;;;;4943349;28;6925;-89
2022/07/04 07:19:38;;;;;;;;;;;;;;;;;;4975131;28;8500;-90
2022/07/04 07:22:04;;;;;;;;;;;;;;;;;;4938271;29;8432;-89
2022/07/04 07:24:30;;;;;;;;;;;;;;;;;;4941825;29;7051;-91
2022/07/04 07:26:57;;;;;;;;;;;;;;;;;;4939883;29;8598;-91
2022/07/04 07:29:22;;;;;;;;;;;;;;;;;;4940532;29;8414;-88
2022/07/04 07:31:48;;;;;;;;;;;;;;;;;;4940525;29;8288;-92
2022/07/04 07:34:14;;;;;;;;;;;;;;;;;;4924105;29;8385;-90
2022/07/04 07:36:40;;;;;;;;;;;;;;;;;;4939437;29;8558;-91
2022/07/04 07:39:06;;;;;;;;;;;;;;;;;;4939527;29;8315;-90
2022/07/04 07:41:31;;;;;;;;;;;;;;;;;;4939601;29;7107;-90
2022/07/04 07:43:58;;;;;;;;;;;;;;;;;;4923487;29;7024;-91
2022/07/04 07:46:23;;;;;;;;;;;;;;;;;;4939785;29;7117;-90
2022/07/04 07:48:49;;;;;;;;;;;;;;;;;;4923329;29;7020;-90
2022/07/04 07:51:15;;;;;;;;;;;;;;;;;;4922967;29;8440;-89
2022/07/04 07:53:41;;;;;;;;;;;;;;;;;;4923819;29;8425;-86
2022/07/04 07:56:06;;;;;;;;;;;;;;;;;;4939065;29;9187;-89
2022/07/04 07:58:32;;;;;;;;;;;;;;;;;;4923166;29;7268;-89
2022/07/04 08:00:57;;;;;;;;;;;;;;;;;;4923273;29;8436;-88
2022/07/04 08:06:08;;;;;;;;;;;;;;;;;;4940790;29;6818;-91
2022/07/04 08:08:34;;;;;;;;;;;;;;;;;;4942217;29;8482;-90
2022/07/04 08:10:59;;;;;;;;;;;;;;;;;;4923412;29;8659;-90
2022/07/04 08:13:25;;;;;;;;;;;;;;;;;;4923022;29;8984;-90
2022/07/04 08:15:50;;;;;;;;;;;;;;;;;;4922986;29;8427;-91
2022/07/04 08:18:17;;;;;;;;;;;;;;;;;;4922874;29;8677;-90
2022/07/04 08:20:42;;;;;;;;;;;;;;;;;;4922303;29;7266;-89
2022/07/04 08:23:08;;;;;;;;;;;;;;;;;;4924034;29;8366;-92
2022/07/04 08:25:33;;;;;;;;;;;;;;;;;;4923534;29;8488;-90
2022/07/04 08:27:59;;;;;;;;;;;;;;;;;;4925805;29;6890;-91
2022/07/04 08:30:25;;;;;;;;;;;;;;;;;;4924409;29;8765;-89
2022/07/04 08:32:50;;;;;;;;;;;;;;;;;;4938520;29;8393;-90
2022/07/04 08:35:16;;;;;;;;;;;;;;;;;;4922936;29;7294;-91
2022/07/04 08:37:41;;;;;;;;;;;;;;;;;;4955126;28;8514;-91
2022/07/04 08:40:08;;;;;;;;;;;;;;;;;;4954712;28;7177;-90
2022/07/04 08:42:38;;;;;;;;;;;;;;;;;;4954531;28;8418;-90
2022/07/04 08:45:06;;;;;;;;;;;;;;;;;;4958917;28;8455;-89
2022/07/04 08:47:35;;;;;;;;;;;;;;;;;;4954826;28;8445;-89
2022/07/04 08:50:00;;;;;;;;;;;;;;;;;;4955074;28;8684;-90
2022/07/04 08:52:35;;;;;;;;;;;;;;;;;;4957006;28;8586;-88
2022/07/04 09:00:30;;;;;;;;;;;;;;;;;;4946696;29;6812;-87
2022/07/04 09:02:58;;;;;;;;;;;;;;;;;;4959934;28;8382;-88
2022/07/04 09:05:24;;;;;;;;;;;;;;;;;;4952971;28;7025;-88
2022/07/04 09:07:50;;;;;;;;;;;;;;;;;;4920708;29;6968;-92
2022/07/04 09:10:16;;;;;;;;;;;;;;;;;;4902501;29;8449;-90
2022/07/04 09:12:42;;;;;;;;;;;;;;;;;;4901628;29;8718;-76
2022/07/04 09:15:07;;;;;;;;;;;;;;;;;;4901715;29;8648;-91
2022/07/04 09:17:33;;;;;;;;;;;;;;;;;;4902633;29;8975;-91
2022/07/04 09:20:14;;;;;;;;;;;;;;;;;;4901802;29;7165;-90
2022/07/04 09:22:40;;;;;;;;;;;;;;;;;;4918372;29;8642;-93
2022/07/04 09:25:06;;;;;;;;;;;;;;;;;;4901984;29;8422;-91
2022/07/04 09:27:33;;;;;;;;;;;;;;;;;;4901918;29;7042;-93
2022/07/04 09:29:59;;;;;;;;;;;;;;;;;;4901558;29;7163;-93
2022/07/04 09:32:45;;;;;;;;;;;;;;;;;;4902457;29;8676;-92
2022/07/04 09:35:21;;;;;;;;;;;;;;;;;;4902018;29;8550;-91
2022/07/04 09:37:51;;;;;;;;;;;;;;;;;;4901315;29;8491;-92
2022/07/04 09:40:25;;;;;;;;;;;;;;;;;;4887652;29;7026;-93
2022/07/04 09:42:51;;;;;;;;;;;;;;;;;;4902859;29;8483;-92
2022/07/04 09:45:17;;;;;;;;;;;;;;;;;;4903327;29;8489;-91
2022/07/04 09:47:44;;;;;;;;;;;;;;;;;;4901980;29;8492;-91
2022/07/04 09:50:13;;;;;;;;;;;;;;;;;;4904886;29;7101;-90
2022/07/04 09:52:53;;;;;;;;;;;;;;;;;;4904415;29;8482;-90
2022/07/04 09:55:26;;;;;;;;;;;;;;;;;;4903960;29;7198;-90
2022/07/04 09:57:52;;;;;;;;;;;;;;;;;;4903321;29;6889;-91
2022/07/04 10:00:24;;;;;;;;;;;;;;;;;;4904547;29;8413;-89
2022/07/04 10:02:51;;;;;;;;;;;;;;;;;;4916449;29;8492;-89
2022/07/04 10:05:24;;;;;;;;;;;;;;;;;;4905166;29;8593;-90
2022/07/04 10:07:50;;;;;;;;;;;;;;;;;;4898412;29;7192;-91
2022/07/04 10:10:23;;;;;;;;;;;;;;;;;;4898603;29;6963;-90
2022/07/04 10:12:50;;;;;;;;;;;;;;;;;;4901366;29;8759;-91
2022/07/04 10:15:16;;;;;;;;;;;;;;;;;;4903044;29;8376;-90
2022/07/04 10:17:41;;;;;;;;;;;;;;;;;;4899027;29;7162;-89
2022/07/04 10:20:10;;;;;;;;;;;;;;;;;;4888976;29;7134;-90
2022/07/04 10:22:37;;;;;;;;;;;;;;;;;;4901806;29;7050;-91
2022/07/04 10:25:03;;;;;;;;;;;;;;;;;;4905700;29;6990;-90
2022/07/04 10:27:30;;;;;;;;;;;;;;;;;;4896879;29;8483;-89
2022/07/04 10:29:57;;;;;;;;;;;;;;;;;;4907655;29;7001;-86
2022/07/04 10:32:23;;;;;;;;;;;;;;;;;;4908726;29;7060;-88
2022/07/04 10:34:49;;;;;;;;;;;;;;;;;;4911583;29;7169;-92
2022/07/04 10:37:14;;;;;;;;;;;;;;;;;;4921578;29;6992;-91
2022/07/04 10:39:40;;;;;;;;;;;;;;;;;;4963951;23;8383;-62
2022/07/04 10:42:35;;;;;;;;;;;;;;;;;;4974530;28;7816;-62
2022/07/04 10:45:31;;;;;;;;;;;;;;;;;;4975584;28;7472;-62
2022/07/04 10:47:58;;;;;;;;;;;;;;;;;;4975091;28;6995;-62
2022/07/04 10:50:29;;;;;;;;;;;;;;;;;;4975577;28;6872;-62
2022/07/04 10:53:21;;;;;;;;;;;;;;;;;;4976112;28;7397;-62
2022/07/04 10:58:50;;;;;;;;;;;;;;;;;;4975212;28;7231;-62
2022/07/04 11:01:17;;;;;;;;;;;;;;;;;;4975665;28;6908;-62
2022/07/04 11:06:55;;;;;;;;;;;;;;;;;;4959293;28;6717;-63
2022/07/04 11:09:27;;;;;;;;;;;;;;;;;;4975017;28;7459;-62
2022/07/04 11:11:58;;;;;;;;;;;;;;;;;;4976017;28;7475;-62
2022/07/04 11:14:54;;;;;;;;;;;;;;;;;;4976817;28;7320;-63
2022/07/04 11:17:21;;;;;;;;;;;;;;;;;;4975401;28;7355;-64
2022/07/04 11:19:47;;;;;;;;;;;;;;;;;;4976942;28;7407;-63
2022/07/04 11:22:29;;;;;;;;;;;;;;;;;;4974877;28;7198;-63
2022/07/04 11:24:56;;;;;;;;;;;;;;;;;;4975297;28;8247;-63
2022/07/04 11:27:35;;;;;;;;;;;;;;;;;;4975597;28;7372;-63
2022/07/04 11:30:01;;;;;;;;;;;;;;;;;;4974826;28;7128;-63
2022/07/04 11:32:37;;;;;;;;;;;;;;;;;;4975715;28;7188;-63
2022/07/04 11:35:06;;;;;;;;;;;;;;;;;;4975290;28;7177;-63
2022/07/04 11:37:32;;;;;;;;;;;;;;;;;;4974628;28;6991;-63
2022/07/04 11:46:09;;;;;;;;;;;;;;;;;;4975844;28;6975;-63
2022/07/04 11:48:34;;;;;;;;;;;;;;;;;;4965007;28;7123;-63
2022/07/04 11:51:27;;;;;;;;;;;;;;;;;;4955772;29;7041;-63
2022/07/04 11:57:07;;;;;;;;;;;;;;;;;;4978481;28;6828;-64
2022/07/04 11:59:33;;;;;;;;;;;;;;;;;;4978103;28;7066;-64
2022/07/04 12:05:03;;;;;;;;;;;;;;;;;;4978753;28;6785;-58
2022/07/04 12:07:40;;;;;;;;;;;;;;;;;;4978544;28;7067;-58
2022/07/04 12:10:08;;;;;;;;;;;;;;;;;;4977709;28;7415;-58
2022/07/04 12:12:35;;;;;;;;;;;;;;;;;;4977892;28;7482;-57
2022/07/04 12:15:06;;;;;;;;;;;;;;;;;;4977988;28;7272;-58
2022/07/04 12:17:33;;;;;;;;;;;;;;;;;;4977881;28;7414;-57
2022/07/04 12:20:01;;;;;;;;;;;;;;;;;;4978094;28;7194;-57
2022/07/04 12:22:31;;;;;;;;;;;;;;;;;;4961054;28;7116;-57
2022/07/04 12:24:57;;;;;;;;;;;;;;;;;;4977494;28;7439;-57
2022/07/04 12:27:31;;;;;;;;;;;;;;;;;;4977782;28;7306;-56
2022/07/04 12:29:58;;;;;;;;;;;;;;;;;;4977032;28;6980;-58
2022/07/04 12:32:47;;;;;;;;;;;;;;;;;;4977706;28;7419;-57
2022/07/04 12:35:31;;;;;;;;;;;;;;;;;;4977614;28;7059;-57
2022/07/04 12:38:09;;;;;;;;;;;;;;;;;;4977739;28;7377;-58
2022/07/04 12:40:36;;;;;;;;;;;;;;;;;;4977031;28;7389;-57
2022/07/04 12:43:02;;;;;;;;;;;;;;;;;;4960140;28;7116;-57
2022/07/04 12:45:42;;;;;;;;;;;;;;;;;;4977551;28;6987;-58
2022/07/04 12:48:34;;;;;;;;;;;;;;;;;;4976998;28;7379;-58
2022/07/04 12:51:28;;;;;;;;;;;;;;;;;;4956406;28;7440;-58
2022/07/04 12:53:56;;;;;;;;;;;;;;;;;;4976985;28;7599;-58
2022/07/04 12:59:30;;;;;;;;;;;;;;;;;;4977018;28;7084;-57
2022/07/04 13:01:57;;;;;;;;;;;;;;;;;;4976426;28;7203;-62
2022/07/04 13:04:37;;;;;;;;;;;;;;;;;;4926303;28;7724;-57
2022/07/04 13:07:26;;;;;;;;;;;;;;;;;;4952478;28;17862;-58
2022/07/04 13:09:54;;;;;;;;;;;;;;;;;;4979027;28;7178;-60
2022/07/04 13:12:28;;;;;;;;;;;;;;;;;;4990044;28;7461;-58
2022/07/04 13:14:56;;;;;;;;;;;;;;;;;;4996402;28;7047;-58
2022/07/04 13:17:48;;;;;;;;;;;;;;;;;;4996315;28;7004;-58
2022/07/04 13:20:15;;;;;;;;;;;;;;;;;;4996180;28;9419;-57
2022/07/04 13:22:46;;;;;;;;;;;;;;;;;;4996116;28;7383;-57
2022/07/04 13:25:12;;;;;;;;;;;;;;;;;;4978344;28;7426;-57
2022/07/04 13:27:42;;;;;;;;;;;;;;;;;;4996568;28;7189;-58
2022/07/04 13:30:08;;;;;;;;;;;;;;;;;;4996273;28;7240;-57
2022/07/04 13:32:36;;;;;;;;;;;;;;;;;;4996039;28;7182;-56
2022/07/04 13:35:04;;;;;;;;;;;;;;;;;;4996080;28;7370;-59
2022/07/04 13:37:34;;;;;;;;;;;;;;;;;;4992662;28;7137;-58
2022/07/04 13:40:00;;;;;;;;;;;;;;;;;;4983747;28;7385;-62
2022/07/04 13:45:19;;;;;;;;;;;;;;;;;;4995850;28;6817;-63
2022/07/04 13:47:55;;;;;;;;;;;;;;;;;;4995555;28;7116;-62
2022/07/04 13:50:22;;;;;;;;;;;;;;;;;;4995655;28;7207;-62
2022/07/04 13:52:51;;;;;;;;;;;;;;;;;;4995712;28;7107;-62
2022/07/04 13:55:17;;;;;;;;;;;;;;;;;;4994489;28;8470;-62
2022/07/04 13:57:55;;;;;;;;;;;;;;;;;;4995809;28;8233;-62
2022/07/04 14:00:20;;;;;;;;;;;;;;;;;;4995376;28;7203;-62
2022/07/04 14:02:48;;;;;;;;;;;;;;;;;;4995743;28;7300;-62
2022/07/04 14:05:13;;;;;;;;;;;;;;;;;;4993875;28;8567;-62
2022/07/04 14:07:48;;;;;;;;;;;;;;;;;;5014904;28;7178;-62
2022/07/04 14:10:14;;;;;;;;;;;;;;;;;;5002955;28;7253;-62
2022/07/04 14:12:40;;;;;;;;;;;;;;;;;;4995557;28;7512;-62
2022/07/04 14:15:06;;;;;;;;;;;;;;;;;;4995626;28;7216;-63
2022/07/04 14:17:40;;;;;;;;;;;;;;;;;;4994762;28;7055;-62
2022/07/04 14:20:08;;;;;;;;;;;;;;;;;;4994808;28;7112;-62
2022/07/04 14:22:39;;;;;;;;;;;;;;;;;;4995193;28;6951;-62
2022/07/04 14:25:06;;;;;;;;;;;;;;;;;;4995255;28;6900;-63
2022/07/04 14:27:34;;;;;;;;;;;;;;;;;;4995634;28;7006;-62
2022/07/04 14:29:59;;;;;;;;;;;;;;;;;;4995083;28;7505;-62
2022/07/04 14:32:25;;;;;;;;;;;;;;;;;;4995204;28;7406;-61
2022/07/04 14:34:50;;;;;;;;;;;;;;;;;;4977561;28;8504;-62
2022/07/04 14:37:23;;;;;;;;;;;;;;;;;;4994768;28;7085;-62
2022/07/04 14:43:01;;;;;;;;;;;;;;;;;;4995058;28;7036;-62
2022/07/04 14:45:27;;;;;;;;;;;;;;;;;;4995301;28;7000;-62
2022/07/04 14:47:53;;;;;;;;;;;;;;;;;;4995280;28;6851;-62
2022/07/04 14:50:19;;;;;;;;;;;;;;;;;;4995402;28;7256;-62
2022/07/04 14:52:46;;;;;;;;;;;;;;;;;;4995391;28;7573;-56
2022/07/04 14:55:12;;;;;;;;;;;;;;;;;;4995036;28;7015;-56
2022/07/04 14:57:51;;;;;;;;;;;;;;;;;;4995371;28;6907;-56
2022/07/04 15:00:17;;;;;;;;;;;;;;;;;;5000463;28;7560;-57
2022/07/04 15:02:51;;;;;;;;;;;;;;;;;;5014220;28;7039;-55
2022/07/04 15:05:17;;;;;;;;;;;;;;;;;;5014504;28;7541;-56
2022/07/04 15:07:45;;;;;;;;;;;;;;;;;;5013939;28;7159;-56
2022/07/04 15:10:12;;;;;;;;;;;;;;;;;;5014021;28;7471;-55
2022/07/04 15:12:42;;;;;;;;;;;;;;;;;;5015059;28;7233;-56
2022/07/04 15:15:09;;;;;;;;;;;;;;;;;;5013899;28;7074;-56
2022/07/04 15:17:36;;;;;;;;;;;;;;;;;;5014197;28;7043;-55
2022/07/04 15:25:30;;;;;;;;;;;;;;;;;;5014326;28;6840;-57
2022/07/04 15:28:01;;;;;;;;;;;;;;;;;;5014039;28;7168;-57
2022/07/04 15:30:27;;;;;;;;;;;;;;;;;;5018071;28;7276;-56
2022/07/04 15:33:01;;;;;;;;;;;;;;;;;;5018055;28;7458;-55
2022/07/04 15:35:27;;;;;;;;;;;;;;;;;;5004159;28;7197;-56
2022/07/04 15:37:58;;;;;;;;;;;;;;;;;;4997549;28;6977;-56
2022/07/04 15:40:26;;;;;;;;;;;;;;;;;;4997695;28;7215;-56
2022/07/04 15:42:51;;;;;;;;;;;;;;;;;;4997889;28;7339;-56
2022/07/04 15:45:29;;;;;;;;;;;;;;;;;;4997865;28;7107;-62
2022/07/04 15:47:54;;;;;;;;;;;;;;;;;;4998069;28;7189;-63
2022/07/04 15:50:23;;;;;;;;;;;;;;;;;;4997875;28;7551;-63
2022/07/04 15:52:49;;;;;;;;;;;;;;;;;;4998450;28;7181;-61
2022/07/04 15:55:19;;;;;;;;;;;;;;;;;;4997969;28;7171;-61
2022/07/04 15:57:45;;;;;;;;;;;;;;;;;;4998112;28;7331;-62
2022/07/04 16:00:11;;;;;;;;;;;;;;;;;;4997640;28;7036;-62
2022/07/04 16:02:56;;;;;;;;;;;;;;;;;;4998162;28;7033;-62
2022/07/04 16:05:22;;;;;;;;;;;;;;;;;;4997923;28;7290;-62
2022/07/04 16:07:47;;;;;;;;;;;;;;;;;;4997803;28;7328;-62
2022/07/04 16:10:13;;;;;;;;;;;;;;;;;;4997303;28;7139;-62
2022/07/04 16:15:53;;;;;;;;;;;;;;;;;;4997445;28;6777;-62
2022/07/04 16:18:19;;;;;;;;;;;;;;;;;;4997230;28;7508;-62
2022/07/04 16:20:47;;;;;;;;;;;;;;;;;;4997282;28;7023;-62
2022/07/04 16:23:12;;;;;;;;;;;;;;;;;;4995811;28;7168;-62
2022/07/04 16:26:01;;;;;;;;;;;;;;;;;;4997335;28;7133;-62
2022/07/04 16:28:27;;;;;;;;;;;;;;;;;;4995655;28;8479;-63
2022/07/04 16:34:02;;;;;;;;;;;;;;;;;;4997055;28;6702;-63
2022/07/04 16:36:28;;;;;;;;;;;;;;;;;;4979406;28;7166;-63
2022/07/04 16:39:16;;;;;;;;;;;;;;;;;;4997146;28;7214;-63
2022/07/04 16:41:42;;;;;;;;;;;;;;;;;;4996356;28;7288;-63
2022/07/04 16:44:07;;;;;;;;;;;;;;;;;;4997041;28;7199;-63
2022/07/04 16:49:24;;;;;;;;;;;;;;;;;;4997309;28;6972;-63
2022/07/04 16:54:52;;;;;;;;;;;;;;;;;;4997735;28;6985;-63
2022/07/04 16:57:31;;;;;;;;;;;;;;;;;;4997079;28;6834;-63
2022/07/04 16:59:57;;;;;;;;;;;;;;;;;;4996513;28;7463;-63
2022/07/04 17:02:25;;;;;;;;;;;;;;;;;;4996981;28;7544;-63
2022/07/04 17:04:50;;;;;;;;;;;;;;;;;;4996796;28;7213;-63
2022/07/04 17:07:18;;;;;;;;;;;;;;;;;;4979276;28;7108;-63
2022/07/04 17:09:44;;;;;;;;;;;;;;;;;;4996777;28;7130;-63
2022/07/04 17:12:10;;;;;;;;;;;;;;;;;;4996784;28;7141;-63
2022/07/04 17:14:36;;;;;;;;;;;;;;;;;;4997015;28;7075;-63
2022/07/04 17:17:21;;;;;;;;;;;;;;;;;;4996748;28;7006;-63
2022/07/04 17:19:46;;;;;;;;;;;;;;;;;;4996015;28;7003;-63
2022/07/04 17:22:25;;;;;;;;;;;;;;;;;;4996109;28;7125;-63
2022/07/04 17:24:51;;;;;;;;;;;;;;;;;;4996870;28;7044;-63
2022/07/04 17:27:23;;;;;;;;;;;;;;;;;;4996953;28;7154;-63
2022/07/04 17:29:49;;;;;;;;;;;;;;;;;;4996471;28;7144;-63
2022/07/04 17:32:17;;;;;;;;;;;;;;;;;;4996800;28;7349;-63
2022/07/04 17:34:43;;;;;;;;;;;;;;;;;;4994949;28;8458;-63
2022/07/04 17:37:21;;;;;;;;;;;;;;;;;;4996008;28;7147;-63
2022/07/04 17:39:51;;;;;;;;;;;;;;;;;;4995818;28;7428;-63
2022/07/04 17:42:16;;;;;;;;;;;;;;;;;;4997103;28;7128;-63
2022/07/04 17:47:43;;;;;;;;;;;;;;;;;;4996424;28;6965;-61
2022/07/04 17:53:15;;;;;;;;;;;;;;;;;;4995406;28;7002;-61
2022/07/04 17:55:41;;;;;;;;;;;;;;;;;;4995510;28;8356;-61
2022/07/04 17:58:16;;;;;;;;;;;;;;;;;;4995737;28;7120;-61
2022/07/04 18:00:42;;;;;;;;;;;;;;;;;;4995751;28;7337;-61
2022/07/04 18:05:55;;;;;;;;;;;;;;;;;;4996280;28;7021;-54
2022/07/04 18:08:20;;;;;;;;;;;;;;;;;;4995578;28;7374;-54
2022/07/04 18:10:46;;;;;;;;;;;;;;;;;;4995214;28;7435;-58
2022/07/04 18:16:07;;;;;;;;;;;;;;;;;;4996104;28;6935;-56
2022/07/04 18:19:07;;;;;;;;;;;;;;;;;;4995665;28;7241;-56
2022/07/04 18:21:33;;;;;;;;;;;;;;;;;;4995830;28;7487;-56
2022/07/04 18:23:58;;;;;;;;;;;;;;;;;;4997212;28;7168;-56
2022/07/04 18:26:24;;;;;;;;;;;;;;;;;;4996915;28;7407;-56